createdAt,value
2022-07-26T00:01:21.372Z,100740.53
2022-07-26T00:03:49.923Z,100738.03
2022-07-26T00:06:18.246Z,100740.75
2022-07-26T00:08:45.823Z,100731.56
2022-07-26T00:11:12.601Z,100740.09
2022-07-26T00:13:39.221Z,100744.03
2022-07-26T00:16:06.651Z,100738.19
2022-07-26T00:18:33.649Z,100741.34
2022-07-26T00:21:00.417Z,100749.66
2022-07-26T00:23:27.605Z,100733.38
2022-07-26T00:25:54.045Z,100743.38
2022-07-26T00:28:20.558Z,100740.22
2022-07-26T00:30:47.032Z,100739.38
2022-07-26T00:33:13.506Z,100745.03
2022-07-26T00:35:40.112Z,100737.69
2022-07-26T00:38:07.620Z,100741.69
2022-07-26T00:40:35.545Z,100746.47
2022-07-26T00:43:02.283Z,100746.47
2022-07-26T00:45:28.821Z,100742.47
2022-07-26T00:47:55.471Z,100749.81
2022-07-26T00:50:22.216Z,100740.84
2022-07-26T00:52:50.117Z,100746.28
2022-07-26T00:55:17.946Z,100748.50
2022-07-26T00:57:44.435Z,100744.78
2022-07-26T01:00:14.989Z,100744.59
2022-07-26T01:02:41.932Z,100742.09
2022-07-26T01:05:08.538Z,100743.28
2022-07-26T01:07:37.226Z,100743.88
2022-07-26T01:10:06.630Z,100742.66
2022-07-26T01:12:33.230Z,100745.56
2022-07-26T01:14:59.735Z,100741.59
2022-07-26T01:17:26.283Z,100747.22
2022-07-26T01:19:52.701Z,100740.53
2022-07-26T01:22:19.125Z,100738.22
2022-07-26T01:24:45.519Z,100737.97
2022-07-26T01:27:11.971Z,100735.69
2022-07-26T01:29:38.524Z,100737.97
2022-07-26T01:32:05.618Z,100728.97
2022-07-26T01:34:32.693Z,100735.00
2022-07-26T01:36:59.464Z,100725.59
2022-07-26T01:39:26.385Z,100721.41
2022-07-26T01:41:54.516Z,100726.78
2022-07-26T01:44:21.121Z,100728.88
2022-07-26T01:46:47.616Z,100736.53
2022-07-26T01:49:14.412Z,100733.19
2022-07-26T01:51:41.131Z,100729.22
2022-07-26T01:54:07.830Z,100741.25
2022-07-26T01:56:34.942Z,100736.06
2022-07-26T01:59:01.753Z,100734.59
2022-07-26T02:01:39.464Z,100740.19
2022-07-26T02:04:08.336Z,100737.03
2022-07-26T02:06:35.274Z,100739.09
2022-07-26T02:09:02.069Z,100731.00
2022-07-26T02:11:28.614Z,100728.28
2022-07-26T02:13:55.164Z,100730.53
2022-07-26T02:16:21.812Z,100737.81
2022-07-26T02:18:48.306Z,100735.34
2022-07-26T02:21:14.778Z,100737.38
2022-07-26T02:23:41.911Z,100736.56
2022-07-26T02:26:08.933Z,100742.16
2022-07-26T02:28:35.473Z,100740.47
2022-07-26T02:31:01.919Z,100733.38
2022-07-26T02:33:28.556Z,100739.63
2022-07-26T02:35:55.147Z,100745.88
2022-07-26T02:38:21.729Z,100736.06
2022-07-26T02:40:50.505Z,100741.47
2022-07-26T02:43:17.325Z,100746.88
2022-07-26T02:45:43.924Z,100746.88
2022-07-26T02:48:28.608Z,100747.91
2022-07-26T02:50:55.397Z,100752.66
2022-07-26T02:53:21.839Z,100749.78
2022-07-26T02:55:48.289Z,100754.34
2022-07-26T02:58:14.799Z,100757.06
2022-07-26T03:00:41.348Z,100761.41
2022-07-26T03:03:07.834Z,100766.47
2022-07-26T03:05:34.292Z,100762.34
2022-07-26T03:08:00.695Z,100771.72
2022-07-26T03:10:27.204Z,100769.47
2022-07-26T03:12:53.709Z,100767.41
2022-07-26T03:15:20.211Z,100766.00
2022-07-26T03:17:46.675Z,100772.00
2022-07-26T03:20:13.431Z,100772.66
2022-07-26T03:22:39.912Z,100773.09
2022-07-26T03:25:06.795Z,100777.28
2022-07-26T03:27:33.310Z,100772.72
2022-07-26T03:30:00.183Z,100776.72
2022-07-26T03:32:27.243Z,100776.50
2022-07-26T03:34:53.667Z,100769.84
2022-07-26T03:37:20.206Z,100771.78
2022-07-26T03:39:46.851Z,100776.78
2022-07-26T03:42:13.366Z,100776.81
2022-07-26T03:44:39.912Z,100777.44
2022-07-26T03:47:06.404Z,100779.38
2022-07-26T03:49:32.882Z,100777.94
2022-07-26T03:51:59.393Z,100777.31
2022-07-26T03:54:26.201Z,100765.03
2022-07-26T03:56:52.727Z,100771.97
2022-07-26T03:59:19.378Z,100778.84
2022-07-26T04:01:47.416Z,100774.06
2022-07-26T04:04:15.732Z,100770.09
2022-07-26T04:06:42.162Z,100764.31
2022-07-26T04:09:09.551Z,100775.56
2022-07-26T04:11:36.067Z,100779.78
2022-07-26T04:14:03.930Z,100782.09
2022-07-26T04:16:30.458Z,100784.78
2022-07-26T04:18:56.994Z,100793.31
2022-07-26T04:21:23.638Z,100790.41
2022-07-26T04:23:51.729Z,100787.91
2022-07-26T04:26:21.243Z,100800.00
2022-07-26T04:28:47.911Z,100801.09
2022-07-26T04:31:14.787Z,100822.75
2022-07-26T04:33:41.395Z,100818.16
2022-07-26T04:36:08.148Z,100817.34
2022-07-26T04:38:34.572Z,100819.59
2022-07-26T04:41:01.120Z,100819.16
2022-07-26T04:43:27.719Z,100816.94
2022-07-26T04:45:54.252Z,100807.72
2022-07-26T04:48:20.768Z,100808.50
2022-07-26T04:50:47.277Z,100814.47
2022-07-26T04:53:13.925Z,100816.47
2022-07-26T04:55:41.279Z,100817.66
2022-07-26T04:58:08.603Z,100805.94
2022-07-26T05:00:51.344Z,100819.03
2022-07-26T05:03:25.008Z,100817.75
2022-07-26T05:05:51.466Z,100822.88
2022-07-26T05:08:17.936Z,100822.84
2022-07-26T05:10:45.211Z,100829.81
2022-07-26T05:13:11.808Z,100835.41
2022-07-26T05:15:38.298Z,100822.28
2022-07-26T05:18:07.330Z,100825.38
2022-07-26T05:20:36.303Z,100819.13
2022-07-26T05:23:03.406Z,100825.13
2022-07-26T05:25:30.015Z,100837.41
2022-07-26T05:27:56.532Z,100834.91
2022-07-26T05:30:23.254Z,100838.63
2022-07-26T05:32:49.855Z,100835.09
2022-07-26T05:35:16.293Z,100835.94
2022-07-26T05:37:43.366Z,100847.59
2022-07-26T05:40:10.341Z,100844.88
2022-07-26T05:42:36.907Z,100851.78
2022-07-26T05:45:05.203Z,100850.94
2022-07-26T05:47:31.981Z,100854.06
2022-07-26T05:49:58.487Z,100854.72
2022-07-26T05:52:25.274Z,100843.84
2022-07-26T05:54:51.711Z,100859.91
2022-07-26T05:57:18.354Z,100852.66
2022-07-26T05:59:44.766Z,100856.00
2022-07-26T06:02:11.234Z,100852.94
2022-07-26T06:04:37.865Z,100862.13
2022-07-26T06:07:04.436Z,100843.84
2022-07-26T06:09:31.160Z,100852.91
2022-07-26T06:11:57.600Z,100859.22
2022-07-26T06:14:24.606Z,100856.38
2022-07-26T06:16:51.198Z,100870.16
2022-07-26T06:19:17.963Z,100866.03
2022-07-26T06:21:45.997Z,100872.09
2022-07-26T06:24:12.784Z,100876.03
2022-07-26T06:26:39.655Z,100875.28
2022-07-26T06:29:06.225Z,100881.97
2022-07-26T06:31:32.859Z,100884.91
2022-07-26T06:33:59.397Z,100886.63
2022-07-26T06:36:30.241Z,100892.53
2022-07-26T06:38:57.745Z,100888.69
2022-07-26T06:41:24.310Z,100889.31
2022-07-26T06:43:50.832Z,100896.16
2022-07-26T06:46:17.381Z,100916.78
2022-07-26T06:48:47.317Z,100910.03
2022-07-26T06:51:19.028Z,100913.03
2022-07-26T06:53:45.514Z,100923.19
2022-07-26T06:56:14.793Z,100938.50
2022-07-26T06:58:42.539Z,100934.47
2022-07-26T07:01:09.292Z,100947.09
2022-07-26T07:03:35.809Z,100946.13
2022-07-26T07:06:02.336Z,100946.69
2022-07-26T07:08:29.047Z,100943.56
2022-07-26T07:10:56.730Z,100952.31
2022-07-26T07:13:23.647Z,100956.47
2022-07-26T07:15:52.421Z,100955.06
2022-07-26T07:18:20.243Z,100962.03
2022-07-26T07:20:46.938Z,100961.44
2022-07-26T07:23:13.474Z,100957.19
2022-07-26T07:25:39.964Z,100968.72
2022-07-26T07:28:06.894Z,100970.44
2022-07-26T07:30:33.522Z,100983.97
2022-07-26T07:32:59.928Z,100990.56
2022-07-26T07:35:31.900Z,101000.47
2022-07-26T07:37:58.655Z,101011.41
2022-07-26T07:40:25.317Z,101005.09
2022-07-26T07:42:52.466Z,101009.44
2022-07-26T07:45:19.212Z,100999.56
2022-07-26T07:47:45.860Z,101014.19
2022-07-26T07:50:12.278Z,101015.66
2022-07-26T07:52:38.790Z,101017.78
2022-07-26T07:55:28.713Z,101025.31
2022-07-26T07:57:54.047Z,101032.50
2022-07-26T08:00:27.067Z,101025.44
2022-07-26T08:02:54.292Z,101026.75
2022-07-26T08:05:21.644Z,101027.59
2022-07-26T08:07:48.382Z,101019.47
2022-07-26T08:10:15.347Z,101025.53
2022-07-26T08:12:43.658Z,101023.28
2022-07-26T08:15:10.578Z,101028.34
2022-07-26T08:17:39.823Z,101024.47
2022-07-26T08:20:08.896Z,101036.88
2022-07-26T08:22:41.802Z,101035.50
2022-07-26T08:25:09.162Z,101042.69
2022-07-26T08:27:40.872Z,101046.72
2022-07-26T08:30:08.079Z,101053.09
2022-07-26T08:32:35.782Z,101055.44
2022-07-26T08:35:17.318Z,101064.66
2022-07-26T08:37:46.167Z,101063.00
2022-07-26T08:40:12.777Z,101059.25
2022-07-26T08:42:39.587Z,101074.28
2022-07-26T08:45:06.941Z,101077.25
2022-07-26T08:47:40.070Z,101074.41
2022-07-26T08:50:12.809Z,101090.50
2022-07-26T08:52:42.460Z,101103.63
2022-07-26T08:55:09.658Z,101103.63
2022-07-26T08:57:36.327Z,101116.53
2022-07-26T09:00:24.810Z,101126.41
2022-07-26T09:02:52.918Z,101122.06
2022-07-26T09:05:20.915Z,101135.47
2022-07-26T09:07:47.416Z,101141.38
2022-07-26T09:10:15.793Z,101140.31
2022-07-26T09:12:42.967Z,101130.81
2022-07-26T09:15:24.225Z,101132.97
2022-07-26T09:17:55.391Z,101139.28
2022-07-26T09:20:27.818Z,101133.53
2022-07-26T09:23:13.629Z,101143.06
2022-07-26T09:25:43.265Z,101150.81
2022-07-26T09:28:31.113Z,101156.75
2022-07-26T09:31:03.523Z,101152.97
2022-07-26T09:33:46.871Z,101158.97
2022-07-26T09:36:13.698Z,101165.06
2022-07-26T09:38:43.988Z,101169.31
2022-07-26T09:41:21.333Z,101173.88
2022-07-26T09:43:53.508Z,101160.91
2022-07-26T09:46:21.458Z,101169.22
2022-07-26T09:51:35.767Z,101186.19
2022-07-26T09:54:02.533Z,101192.50
2022-07-26T09:56:49.919Z,101181.59
2022-07-26T09:59:20.282Z,101175.97
2022-07-26T10:01:47.232Z,101186.41
2022-07-26T10:04:14.629Z,101190.38
2022-07-26T10:06:42.147Z,101183.47
2022-07-26T10:09:09.763Z,101184.28
2022-07-26T10:11:44.099Z,101197.22
2022-07-26T10:14:32.717Z,101200.72
2022-07-26T10:17:20.099Z,101204.28
2022-07-26T10:19:47.530Z,101210.75
2022-07-26T10:22:30.615Z,101226.41
2022-07-26T10:25:18.200Z,101217.22
2022-07-26T10:27:53.174Z,101220.97
2022-07-26T10:30:19.660Z,101221.81
2022-07-26T10:32:52.282Z,101218.81
2022-07-26T10:35:43.899Z,101205.16
2022-07-26T10:38:23.690Z,101217.09
2022-07-26T10:41:06.175Z,101217.22
2022-07-26T10:43:42.343Z,101221.91
2022-07-26T10:46:18.579Z,101218.38
2022-07-26T10:49:00.177Z,101225.16
2022-07-26T10:51:29.504Z,101220.41
2022-07-26T10:54:07.870Z,101225.22
2022-07-26T10:56:34.943Z,101218.09
2022-07-26T10:59:02.841Z,101223.97
2022-07-26T11:01:40.249Z,101225.59
2022-07-26T11:04:20.900Z,101239.25
2022-07-26T11:06:47.573Z,101240.56
2022-07-26T11:09:14.072Z,101238.47
2022-07-26T11:11:46.804Z,101235.94
2022-07-26T11:14:16.604Z,101244.31
2022-07-26T11:16:43.795Z,101248.00
2022-07-26T11:19:21.548Z,101243.59
2022-07-26T11:21:56.616Z,101251.97
2022-07-26T11:24:23.150Z,101253.59
2022-07-26T11:26:50.365Z,101243.09
2022-07-26T11:29:37.892Z,101254.38
2022-07-26T11:32:14.611Z,101254.72
2022-07-26T11:34:45.307Z,101255.06
2022-07-26T11:37:12.091Z,101265.91
2022-07-26T11:39:38.655Z,101274.00
2022-07-26T11:42:13.498Z,101276.47
2022-07-26T11:44:44.831Z,101276.25
2022-07-26T11:47:15.688Z,101272.91
2022-07-26T11:49:59.892Z,101280.38
2022-07-26T11:52:31.226Z,101276.75
2022-07-26T11:54:57.754Z,101285.78
2022-07-26T11:57:29.459Z,101278.94
2022-07-26T11:59:56.110Z,101281.41
2022-07-26T12:02:23.102Z,101282.44
2022-07-26T12:04:49.741Z,101283.69
2022-07-26T12:07:20.112Z,101293.16
2022-07-26T12:09:46.561Z,101290.47
2022-07-26T12:12:27.948Z,101288.78
2022-07-26T12:15:02.447Z,101289.75
2022-07-26T12:17:35.152Z,101291.03
2022-07-26T12:20:11.616Z,101303.19
2022-07-26T12:22:38.252Z,101295.28
2022-07-26T12:25:05.163Z,101308.19
2022-07-26T12:27:33.546Z,101291.53
2022-07-26T12:30:03.221Z,101298.84
2022-07-26T12:32:32.438Z,101304.81
2022-07-26T12:35:07.489Z,101290.00
2022-07-26T12:37:40.988Z,101316.41
2022-07-26T12:40:13.542Z,101301.25
2022-07-26T12:42:57.312Z,101300.25
2022-07-26T12:45:29.660Z,101304.41
2022-07-26T12:47:57.811Z,101305.75
2022-07-26T12:50:27.470Z,101302.31
2022-07-26T12:53:06.316Z,101300.00
2022-07-26T12:55:34.027Z,101294.53
2022-07-26T12:58:00.737Z,101300.50
2022-07-26T13:00:29.664Z,101306.34
2022-07-26T13:02:57.424Z,101316.44
2022-07-26T13:05:24.030Z,101315.59
2022-07-26T13:07:51.609Z,101313.69
2022-07-26T13:10:35.396Z,101308.25
2022-07-26T13:13:03.591Z,101311.00
2022-07-26T13:15:37.131Z,101329.88
2022-07-26T13:18:08.416Z,101306.38
2022-07-26T13:20:38.497Z,101332.88
2022-07-26T13:23:05.281Z,101327.13
2022-07-26T13:25:38.296Z,101320.44
2022-07-26T13:28:06.351Z,101333.50
2022-07-26T13:30:32.949Z,101325.63
2022-07-26T13:32:59.548Z,101332.97
2022-07-26T13:35:26.004Z,101326.28
2022-07-26T13:37:52.388Z,101317.94
2022-07-26T13:40:19.147Z,101323.50
2022-07-26T13:42:45.596Z,101323.81
2022-07-26T13:45:12.032Z,101320.72
2022-07-26T13:47:38.528Z,101313.69
2022-07-26T13:50:05.947Z,101328.47
2022-07-26T13:52:34.298Z,101338.84
2022-07-26T13:55:00.706Z,101336.47
2022-07-26T13:57:49.141Z,101339.28
2022-07-26T14:00:14.570Z,101348.72
2022-07-26T14:02:41.233Z,101357.88
2022-07-26T14:05:08.897Z,101357.53
2022-07-26T14:07:35.607Z,101364.28
2022-07-26T14:10:02.224Z,101372.09
2022-07-26T14:12:28.828Z,101369.66
2022-07-26T14:14:55.331Z,101376.44
2022-07-26T14:17:21.780Z,101370.22
2022-07-26T14:19:48.209Z,101370.22
2022-07-26T14:22:14.746Z,101376.72
2022-07-26T14:24:41.144Z,101372.47
2022-07-26T14:27:08.024Z,101370.78
2022-07-26T14:29:34.519Z,101379.16
2022-07-26T14:32:03.026Z,101383.50
2022-07-26T14:34:29.583Z,101381.19
2022-07-26T14:36:56.030Z,101379.22
2022-07-26T14:39:22.496Z,101394.31
2022-07-26T14:41:49.106Z,101368.34
2022-07-26T14:44:15.647Z,101399.38
2022-07-26T14:46:43.805Z,101390.56
2022-07-26T14:49:10.451Z,101391.59
2022-07-26T14:51:36.956Z,101389.03
2022-07-26T14:54:04.250Z,101376.50
2022-07-26T14:56:30.868Z,101393.50
2022-07-26T14:58:57.307Z,101393.97
2022-07-26T15:01:24.006Z,101397.63
2022-07-26T15:03:50.898Z,101399.16
2022-07-26T15:06:17.336Z,101400.66
2022-07-26T15:08:43.778Z,101393.16
2022-07-26T15:11:10.301Z,101404.06
2022-07-26T15:13:36.858Z,101399.22
2022-07-26T15:16:03.569Z,101398.41
2022-07-26T15:18:30.482Z,101403.84
2022-07-26T15:20:57.913Z,101397.97
2022-07-26T15:23:25.074Z,101400.44
2022-07-26T15:25:51.564Z,101402.97
2022-07-26T15:28:18.658Z,101405.47
2022-07-26T15:30:45.129Z,101401.72
2022-07-26T15:33:12.005Z,101405.91
2022-07-26T15:35:40.546Z,101406.13
2022-07-26T15:38:07.500Z,101396.88
2022-07-26T15:40:34.169Z,101395.22
2022-07-26T15:43:00.945Z,101405.25
2022-07-26T15:45:27.966Z,101403.56
2022-07-26T15:48:11.149Z,101410.41
2022-07-26T15:50:44.815Z,101401.84
2022-07-26T15:53:11.417Z,101402.44
2022-07-26T15:55:38.485Z,101399.69
2022-07-26T15:58:05.443Z,101404.69
2022-07-26T16:00:32.103Z,101406.56
2022-07-26T16:02:58.705Z,101402.81
2022-07-26T16:05:25.224Z,101403.06
2022-07-26T16:07:51.799Z,101398.88
2022-07-26T16:10:18.304Z,101413.97
2022-07-26T16:12:44.932Z,101398.13
2022-07-26T16:15:12.186Z,101411.09
2022-07-26T16:17:39.220Z,101415.06
2022-07-26T16:20:07.073Z,101417.16
2022-07-26T16:22:34.430Z,101415.88
2022-07-26T16:25:01.007Z,101419.56
2022-07-26T16:27:27.434Z,101424.94
2022-07-26T16:29:56.719Z,101420.44
2022-07-26T16:32:23.188Z,101421.84
2022-07-26T16:34:50.076Z,101425.28
2022-07-26T16:37:16.646Z,101415.63
2022-07-26T16:39:45.830Z,101407.22
2022-07-26T16:42:12.231Z,101370.88
2022-07-26T16:44:39.403Z,101418.66
2022-07-26T16:47:06.028Z,101410.69
2022-07-26T16:49:32.685Z,101407.75
2022-07-26T16:51:59.486Z,101424.78
2022-07-26T16:54:26.116Z,101413.69
2022-07-26T16:56:52.654Z,101419.56
2022-07-26T16:59:19.164Z,101412.53
2022-07-26T17:01:45.659Z,101409.53
2022-07-26T17:04:12.219Z,101424.03
2022-07-26T17:06:38.688Z,101409.00
2022-07-26T17:09:05.436Z,101418.69
2022-07-26T17:11:31.927Z,101420.81
2022-07-26T17:13:59.595Z,101422.06
2022-07-26T17:16:26.620Z,101427.69
2022-07-26T17:18:56.239Z,101416.16
2022-07-26T17:21:23.600Z,101417.63
2022-07-26T17:23:51.354Z,101423.00
2022-07-26T17:26:19.097Z,101410.66
2022-07-26T17:28:45.884Z,101406.44
2022-07-26T17:31:12.479Z,101407.94
2022-07-26T17:33:38.910Z,101407.69
2022-07-26T17:36:25.431Z,101417.78
2022-07-26T17:38:53.446Z,101419.91
2022-07-26T17:41:21.820Z,101420.34
2022-07-26T17:43:48.391Z,101414.91
2022-07-26T17:46:15.185Z,101422.19
2022-07-26T17:48:43.968Z,101417.75
2022-07-26T17:51:10.506Z,101415.16
2022-07-26T17:53:37.030Z,101417.56
2022-07-26T17:56:03.718Z,101426.22
2022-07-26T17:58:30.149Z,101424.81
2022-07-26T18:00:56.662Z,101428.19
2022-07-26T18:03:23.292Z,101431.16
2022-07-26T18:05:50.686Z,101424.78
2022-07-26T18:08:17.561Z,101430.13
2022-07-26T18:10:47.694Z,101428.66
2022-07-26T18:13:17.763Z,101426.81
2022-07-26T18:15:44.375Z,101428.31
2022-07-26T18:18:11.018Z,101422.06
2022-07-26T18:20:37.687Z,101432.41
2022-07-26T18:23:04.184Z,101431.47
2022-07-26T18:25:30.662Z,101409.56
2022-07-26T18:27:57.219Z,101430.22
2022-07-26T18:30:23.740Z,101435.75
2022-07-26T18:32:50.563Z,101437.97
2022-07-26T18:35:17.029Z,101435.13
2022-07-26T18:37:43.456Z,101436.72
2022-07-26T18:40:10.204Z,101447.06
2022-07-26T18:42:36.845Z,101436.53
2022-07-26T18:45:04.033Z,101440.97
2022-07-26T18:47:30.537Z,101437.94
2022-07-26T18:49:57.128Z,101438.69
2022-07-26T18:52:31.604Z,101428.41
2022-07-26T18:55:00.926Z,101437.06
2022-07-26T18:57:27.373Z,101425.47
2022-07-26T18:59:53.864Z,101427.50
2022-07-26T19:02:20.320Z,101431.25
2022-07-26T19:04:46.751Z,101439.91
2022-07-26T19:07:13.293Z,101439.41
2022-07-26T19:09:40.233Z,101439.91
2022-07-26T19:12:07.035Z,101443.16
2022-07-26T19:14:33.451Z,101440.50
2022-07-26T19:16:59.907Z,101439.69
2022-07-26T19:19:26.405Z,101442.97
2022-07-26T19:21:52.861Z,101445.34
2022-07-26T19:24:19.325Z,101453.97
2022-07-26T19:26:45.746Z,101450.78
2022-07-26T19:29:12.838Z,101445.75
2022-07-26T19:31:40.437Z,101446.94
2022-07-26T19:34:07.147Z,101439.16
2022-07-26T19:36:33.963Z,101445.09
2022-07-26T19:39:01.210Z,101447.16
2022-07-26T19:41:27.815Z,101451.22
2022-07-26T19:43:54.398Z,101455.28
2022-07-26T19:46:21.041Z,101465.56
2022-07-26T19:48:47.613Z,101466.13
2022-07-26T19:51:14.138Z,101455.66
2022-07-26T19:53:40.858Z,101475.91
2022-07-26T19:56:07.862Z,101476.91
2022-07-26T19:58:34.412Z,101462.91
2022-07-26T20:01:00.956Z,101471.69
2022-07-26T20:03:27.575Z,101468.81
2022-07-26T20:05:55.607Z,101471.34
2022-07-26T20:08:22.210Z,101464.94
2022-07-26T20:10:48.675Z,101477.25
2022-07-26T20:13:15.254Z,101470.34
2022-07-26T20:15:42.353Z,101479.78
2022-07-26T20:18:10.226Z,101477.75
2022-07-26T20:20:36.784Z,101475.91
2022-07-26T20:23:05.987Z,101471.00
2022-07-26T20:25:32.735Z,101482.31
2022-07-26T20:28:00.102Z,101481.81
2022-07-26T20:30:26.632Z,101475.56
2022-07-26T20:32:53.195Z,101473.22
2022-07-26T20:35:19.797Z,101470.50
2022-07-26T20:37:46.213Z,101465.44
2022-07-26T20:40:13.358Z,101471.22
2022-07-26T20:42:44.177Z,101474.25
2022-07-26T20:45:13.110Z,101469.16
2022-07-26T20:47:40.540Z,101476.63
2022-07-26T20:50:11.186Z,101476.63
2022-07-26T20:52:38.666Z,101486.59
2022-07-26T20:55:05.775Z,101481.34
2022-07-26T20:57:32.220Z,101480.34
2022-07-26T20:59:58.711Z,101486.09
2022-07-26T21:02:25.725Z,101487.44
2022-07-26T21:04:52.314Z,101485.56
2022-07-26T21:07:19.130Z,101488.94
2022-07-26T21:09:45.658Z,101484.06
2022-07-26T21:12:12.062Z,101489.94
2022-07-26T21:14:38.504Z,101484.22
2022-07-26T21:17:10.979Z,101492.31
2022-07-26T21:19:38.250Z,101484.72
2022-07-26T21:22:04.696Z,101486.72
2022-07-26T21:24:31.214Z,101487.72
2022-07-26T21:26:57.723Z,101493.13
2022-07-26T21:29:24.161Z,101496.81
2022-07-26T21:31:50.558Z,101495.97
2022-07-26T21:34:17.188Z,101496.81
2022-07-26T21:36:43.764Z,101495.81
2022-07-26T21:39:10.717Z,101492.28
2022-07-26T21:41:37.447Z,101486.19
2022-07-26T21:44:05.191Z,101489.94
2022-07-26T21:46:31.744Z,101487.94
2022-07-26T21:48:58.674Z,101488.59
2022-07-26T21:51:25.234Z,101492.16
2022-07-26T21:53:51.748Z,101491.28
2022-07-26T21:56:18.609Z,101490.63
2022-07-26T21:58:45.039Z,101496.16
2022-07-26T22:01:13.505Z,101486.56
2022-07-26T22:03:41.369Z,101485.19
2022-07-26T22:06:08.633Z,101494.13
2022-07-26T22:08:35.765Z,101489.06
2022-07-26T22:11:03.406Z,101495.47
2022-07-26T22:13:29.937Z,101495.47
2022-07-26T22:15:56.392Z,101495.66
2022-07-26T22:18:22.833Z,101497.50
2022-07-26T22:20:50.103Z,101487.00
2022-07-26T22:23:18.075Z,101496.09
2022-07-26T22:25:45.079Z,101495.41
2022-07-26T22:28:12.391Z,101494.75
2022-07-26T22:30:44.572Z,101494.06
2022-07-26T22:33:11.801Z,101492.53
2022-07-26T22:35:38.703Z,101490.19
2022-07-26T22:38:08.791Z,101485.81
2022-07-26T22:40:36.384Z,101494.03
2022-07-26T22:43:03.153Z,101488.97
2022-07-26T22:45:30.408Z,101495.22
2022-07-26T22:47:57.511Z,101497.38
2022-07-26T22:50:25.009Z,101500.22
2022-07-26T22:52:52.229Z,101496.69
2022-07-26T22:55:19.267Z,101487.09
2022-07-26T22:57:45.826Z,101484.38
2022-07-26T23:00:16.916Z,101487.75
2022-07-26T23:02:44.102Z,101489.94
2022-07-26T23:05:11.053Z,101498.31
2022-07-26T23:07:38.867Z,101488.22
2022-07-26T23:10:08.718Z,101493.63
2022-07-26T23:12:35.919Z,101491.22
2022-07-26T23:15:03.149Z,101492.56
2022-07-26T23:17:29.574Z,101485.16
2022-07-26T23:19:55.976Z,101491.38
2022-07-26T23:22:22.433Z,101487.16
2022-07-26T23:24:49.098Z,101492.00
2022-07-26T23:27:19.803Z,101491.63
2022-07-26T23:29:47.957Z,101495.66
2022-07-26T23:32:15.806Z,101494.13
2022-07-26T23:34:42.289Z,101492.91
2022-07-26T23:37:08.728Z,101490.53
2022-07-26T23:39:35.365Z,101493.72
2022-07-26T23:42:03.000Z,101487.66
2022-07-26T23:44:30.808Z,101493.34
2022-07-26T23:46:58.496Z,101498.03
2022-07-26T23:49:25.221Z,101499.03
2022-07-26T23:51:52.325Z,101499.19
2022-07-26T23:54:18.820Z,101493.50
2022-07-26T23:56:45.606Z,101489.81
2022-07-26T23:59:13.385Z,101487.13
